Time;durP1;ratioP1;P1;durP2;ratioP2;P2;SDS_P1;SDS_P2;PMS_P1;PMS_P2;Temp;Humidity;BMP_temperature;BMP_pressure;BME280_temperature;BME280_humidity;BME280_pressure;Samples;Min_cycle;Max_cycle;Signal;HPM_P1;HPM_P2
2023/08/20 00:00:08;;;;;;;7.25;6.65;;;;;;;;;;5141079;27;20586;-65
2023/08/20 00:02:37;;;;;;;6.55;5.95;;;;;;;;;;5141413;27;20562;-65
2023/08/20 00:05:07;;;;;;;6.63;6.03;;;;;;;;;;5140853;27;20209;-65
2023/08/20 00:07:35;;;;;;;6.30;5.90;;;;;;;;;;5140624;27;20206;-65
2023/08/20 00:10:04;;;;;;;6.95;6.45;;;;;;;;;;5140895;27;20202;-65
2023/08/20 00:12:31;;;;;;;6.72;6.10;;;;;;;;;;5140926;27;20302;-65
2023/08/20 00:15:04;;;;;;;7.65;6.00;;;;;;;;;;5141036;27;20259;-65
2023/08/20 00:17:32;;;;;;;7.25;6.65;;;;;;;;;;5140437;27;20211;-65
2023/08/20 00:20:00;;;;;;;6.65;6.05;;;;;;;;;;5140552;27;20228;-65
2023/08/20 00:22:30;;;;;;;6.55;6.05;;;;;;;;;;5140250;27;20198;-65
2023/08/20 00:24:58;;;;;;;7.00;6.40;;;;;;;;;;5140387;27;20202;-65
2023/08/20 00:27:26;;;;;;;6.45;5.95;;;;;;;;;;5140716;27;20203;-65
2023/08/20 00:29:53;;;;;;;6.57;6.07;;;;;;;;;;5140540;27;20201;-65
2023/08/20 00:32:21;;;;;;;6.90;6.18;;;;;;;;;;5140454;27;20226;-65
2023/08/20 00:34:49;;;;;;;6.82;6.32;;;;;;;;;;5140065;27;20234;-65
2023/08/20 00:37:16;;;;;;;6.90;6.30;;;;;;;;;;5139594;27;20234;-65
2023/08/20 00:39:46;;;;;;;6.55;6.05;;;;;;;;;;5139887;27;20202;-65
2023/08/20 00:42:14;;;;;;;6.03;5.53;;;;;;;;;;5140178;27;20207;-65
2023/08/20 00:44:44;;;;;;;6.97;6.38;;;;;;;;;;5139972;27;20225;-65
2023/08/20 00:47:12;;;;;;;6.53;6.03;;;;;;;;;;5139883;27;20210;-65
2023/08/20 00:49:40;;;;;;;5.95;5.45;;;;;;;;;;5140200;27;20245;-65
2023/08/20 00:52:08;;;;;;;6.43;5.95;;;;;;;;;;5140044;27;20230;-66
2023/08/20 00:54:36;;;;;;;6.88;6.28;;;;;;;;;;5140194;27;20597;-65
2023/08/20 00:57:05;;;;;;;6.63;6.13;;;;;;;;;;5140192;27;20529;-66
2023/08/20 00:59:34;;;;;;;6.80;6.30;;;;;;;;;;5139230;27;20227;-66
2023/08/20 01:02:02;;;;;;;6.93;6.35;;;;;;;;;;5140248;27;20198;-65
2023/08/20 01:04:30;;;;;;;7.05;6.38;;;;;;;;;;5139708;27;20596;-66
2023/08/20 01:07:05;;;;;;;6.43;5.93;;;;;;;;;;5139757;27;20202;-66
2023/08/20 01:09:39;;;;;;;7.07;5.93;;;;;;;;;;5139763;27;20619;-65
2023/08/20 01:12:08;;;;;;;6.80;6.25;;;;;;;;;;5139557;27;20305;-66
2023/08/20 01:14:36;;;;;;;6.32;5.82;;;;;;;;;;5139534;27;20267;-66
2023/08/20 01:17:04;;;;;;;6.72;6.22;;;;;;;;;;5139817;27;20584;-66
2023/08/20 01:19:32;;;;;;;6.95;6.35;;;;;;;;;;5139015;27;20598;-66
2023/08/20 01:22:11;;;;;;;6.32;5.75;;;;;;;;;;5139375;27;20231;-66
2023/08/20 01:24:45;;;;;;;6.75;6.15;;;;;;;;;;5139603;27;20209;-66
2023/08/20 01:27:21;;;;;;;7.05;6.45;;;;;;;;;;5139489;27;20266;-66
2023/08/20 01:29:50;;;;;;;6.63;6.13;;;;;;;;;;5139632;27;20228;-65
2023/08/20 01:32:18;;;;;;;6.43;5.93;;;;;;;;;;5139649;27;20296;-65
2023/08/20 01:34:48;;;;;;;6.63;6.03;;;;;;;;;;5138797;27;20472;-66
2023/08/20 01:37:16;;;;;;;6.32;5.78;;;;;;;;;;5138979;27;20237;-66
2023/08/20 01:39:43;;;;;;;6.20;5.70;;;;;;;;;;5139567;27;20297;-66
2023/08/20 01:42:11;;;;;;;6.32;5.82;;;;;;;;;;5139026;27;20210;-66
2023/08/20 01:44:39;;;;;;;6.47;5.97;;;;;;;;;;5139391;27;20235;-66
2023/08/20 01:47:08;;;;;;;6.53;6.03;;;;;;;;;;5139404;27;20209;-66
2023/08/20 01:49:35;;;;;;;7.03;6.32;;;;;;;;;;5139216;27;20202;-66
2023/08/20 01:52:03;;;;;;;6.30;5.80;;;;;;;;;;5139105;27;20605;-65
2023/08/20 01:54:31;;;;;;;7.20;6.45;;;;;;;;;;5138805;27;20249;-65
2023/08/20 01:56:59;;;;;;;6.60;6.00;;;;;;;;;;5139003;27;20210;-66
2023/08/20 01:59:27;;;;;;;6.65;6.15;;;;;;;;;;5139279;27;20270;-66
2023/08/20 02:01:54;;;;;;;6.00;5.50;;;;;;;;;;5138836;27;20205;-66
2023/08/20 02:04:23;;;;;;;6.38;5.88;;;;;;;;;;5139069;27;20206;-66
2023/08/20 02:06:51;;;;;;;6.72;5.85;;;;;;;;;;5138740;27;20216;-65
2023/08/20 02:09:19;;;;;;;6.13;5.63;;;;;;;;;;5138519;27;20210;-65
2023/08/20 02:11:47;;;;;;;6.82;6.32;;;;;;;;;;5138875;27;20198;-65
2023/08/20 02:14:14;;;;;;;6.90;6.22;;;;;;;;;;5138755;27;20495;-66
2023/08/20 02:16:42;;;;;;;6.57;6.07;;;;;;;;;;5138651;27;20545;-66
2023/08/20 02:19:10;;;;;;;6.78;6.28;;;;;;;;;;5138993;27;20216;-66
2023/08/20 02:21:40;;;;;;;6.45;5.88;;;;;;;;;;5138265;27;20202;-66
2023/08/20 02:24:08;;;;;;;7.05;6.50;;;;;;;;;;5138614;27;20266;-65
2023/08/20 02:26:35;;;;;;;6.90;6.38;;;;;;;;;;5138283;27;20293;-66
2023/08/20 02:29:05;;;;;;;6.40;5.90;;;;;;;;;;5138203;27;20220;-66
2023/08/20 02:31:33;;;;;;;6.20;5.80;;;;;;;;;;5140726;27;20293;-66
2023/08/20 02:34:00;;;;;;;6.30;5.80;;;;;;;;;;5143306;27;20225;-65
2023/08/20 02:36:28;;;;;;;6.22;5.68;;;;;;;;;;5142814;27;20226;-66
2023/08/20 02:38:57;;;;;;;6.40;5.90;;;;;;;;;;5142732;27;20533;-66
2023/08/20 02:41:24;;;;;;;6.30;5.80;;;;;;;;;;5142793;27;20477;-66
2023/08/20 02:43:52;;;;;;;6.80;6.20;;;;;;;;;;5142426;27;20198;-66
2023/08/20 02:46:20;;;;;;;7.43;6.43;;;;;;;;;;5142835;27;20231;-66
2023/08/20 02:48:47;;;;;;;6.50;6.00;;;;;;;;;;5142507;27;20202;-66
2023/08/20 02:51:15;;;;;;;6.70;6.10;;;;;;;;;;5142453;27;20202;-66
2023/08/20 02:53:43;;;;;;;6.70;6.10;;;;;;;;;;5142529;27;20226;-65
2023/08/20 02:56:12;;;;;;;5.82;5.43;;;;;;;;;;5142514;27;20210;-65
2023/08/20 02:58:40;;;;;;;6.18;5.68;;;;;;;;;;5142707;27;20207;-66
2023/08/20 03:01:07;;;;;;;6.13;5.63;;;;;;;;;;5142793;27;20202;-66
2023/08/20 03:03:35;;;;;;;6.13;5.63;;;;;;;;;;5142684;27;20205;-65
2023/08/20 03:06:03;;;;;;;6.35;5.78;;;;;;;;;;5142286;27;20597;-66
2023/08/20 03:08:30;;;;;;;6.20;5.70;;;;;;;;;;5142701;27;20545;-65
2023/08/20 03:10:58;;;;;;;6.30;5.70;;;;;;;;;;5142236;27;20597;-65
2023/08/20 03:13:27;;;;;;;6.45;6.00;;;;;;;;;;5142063;27;20286;-65
2023/08/20 03:15:55;;;;;;;6.45;5.90;;;;;;;;;;5142686;27;20210;-65
2023/08/20 03:18:22;;;;;;;6.28;5.78;;;;;;;;;;5142452;27;20217;-65
2023/08/20 03:20:50;;;;;;;6.80;6.10;;;;;;;;;;5142055;27;20210;-66
2023/08/20 03:23:18;;;;;;;6.75;5.85;;;;;;;;;;5142282;27;20199;-65
2023/08/20 03:25:45;;;;;;;6.75;6.15;;;;;;;;;;5141919;27;20290;-65
2023/08/20 03:28:13;;;;;;;6.15;5.65;;;;;;;;;;5141936;27;20202;-65
2023/08/20 03:30:42;;;;;;;7.05;5.93;;;;;;;;;;5142134;27;20212;-65
2023/08/20 03:33:10;;;;;;;5.90;5.50;;;;;;;;;;5141908;27;20226;-66
2023/08/20 03:35:37;;;;;;;6.22;5.63;;;;;;;;;;5141562;27;20238;-65
2023/08/20 03:38:05;;;;;;;5.90;5.40;;;;;;;;;;5141718;27;20240;-65
2023/08/20 03:40:33;;;;;;;6.43;5.93;;;;;;;;;;5141735;27;20206;-65
2023/08/20 03:43:00;;;;;;;6.15;5.55;;;;;;;;;;5141457;27;20500;-65
2023/08/20 03:45:29;;;;;;;6.30;5.70;;;;;;;;;;5141827;27;20210;-65
2023/08/20 03:47:59;;;;;;;6.50;6.00;;;;;;;;;;5141741;27;20202;-65
2023/08/20 03:50:26;;;;;;;6.88;6.25;;;;;;;;;;5141711;27;20209;-65
2023/08/20 03:52:54;;;;;;;6.47;5.88;;;;;;;;;;5141958;27;20496;-65
2023/08/20 03:55:21;;;;;;;6.20;5.70;;;;;;;;;;5141759;27;20202;-65
2023/08/20 03:57:49;;;;;;;6.13;5.60;;;;;;;;;;5141262;27;20582;-65
2023/08/20 04:00:17;;;;;;;5.88;5.30;;;;;;;;;;5141727;27;20203;-65
2023/08/20 04:02:44;;;;;;;6.28;5.70;;;;;;;;;;5141261;27;20216;-65
2023/08/20 04:05:13;;;;;;;6.10;5.60;;;;;;;;;;5141332;27;20206;-66
2023/08/20 04:07:40;;;;;;;6.05;5.55;;;;;;;;;;5141654;27;20202;-65
2023/08/20 04:10:09;;;;;;;6.68;5.80;;;;;;;;;;5141587;27;20229;-65
2023/08/20 04:12:37;;;;;;;6.50;5.90;;;;;;;;;;5141181;27;20290;-65
2023/08/20 04:15:04;;;;;;;6.07;5.65;;;;;;;;;;5140992;27;20491;-65
2023/08/20 04:17:32;;;;;;;5.88;5.38;;;;;;;;;;5140915;27;20229;-65
2023/08/20 04:19:59;;;;;;;6.32;5.65;;;;;;;;;;5140622;27;20202;-65
2023/08/20 04:22:30;;;;;;;6.28;5.78;;;;;;;;;;5141185;27;20326;-65
2023/08/20 04:24:57;;;;;;;6.60;6.00;;;;;;;;;;5140994;27;20202;-65
2023/08/20 04:27:24;;;;;;;5.63;5.22;;;;;;;;;;5140816;27;20585;-65
2023/08/20 04:29:52;;;;;;;7.03;5.38;;;;;;;;;;5140949;27;20202;-65
2023/08/20 04:32:19;;;;;;;6.50;5.72;;;;;;;;;;5140569;27;20222;-65
2023/08/20 04:34:49;;;;;;;5.95;5.53;;;;;;;;;;5140705;27;20210;-65
2023/08/20 04:37:16;;;;;;;5.57;5.18;;;;;;;;;;5140157;27;20238;-65
2023/08/20 04:39:45;;;;;;;5.63;5.22;;;;;;;;;;5140425;27;20202;-65
2023/08/20 04:42:12;;;;;;;5.20;4.80;;;;;;;;;;5140901;27;20202;-65
2023/08/20 04:44:39;;;;;;;5.35;4.95;;;;;;;;;;5140397;27;20199;-65
2023/08/20 04:47:07;;;;;;;5.88;5.13;;;;;;;;;;5140230;27;20213;-65
2023/08/20 04:49:34;;;;;;;5.40;5.00;;;;;;;;;;5140502;27;20213;-65
2023/08/20 04:52:01;;;;;;;5.65;5.25;;;;;;;;;;5140657;27;20202;-65
2023/08/20 04:54:29;;;;;;;5.70;5.30;;;;;;;;;;5139276;27;20687;-65
2023/08/20 04:56:57;;;;;;;5.88;5.47;;;;;;;;;;5140662;27;20217;-65
2023/08/20 04:59:26;;;;;;;6.03;5.53;;;;;;;;;;5140207;27;20198;-65
2023/08/20 05:01:53;;;;;;;6.22;5.70;;;;;;;;;;5139935;27;20263;-66
2023/08/20 05:04:20;;;;;;;6.07;5.65;;;;;;;;;;5140357;27;20479;-65
2023/08/20 05:06:48;;;;;;;6.10;5.57;;;;;;;;;;5140400;27;20297;-66
2023/08/20 05:09:15;;;;;;;5.80;5.40;;;;;;;;;;5140124;27;20203;-66
2023/08/20 05:11:43;;;;;;;6.32;5.78;;;;;;;;;;5139804;27;20210;-66
2023/08/20 05:14:11;;;;;;;6.22;5.78;;;;;;;;;;5139705;27;20518;-66
2023/08/20 05:16:39;;;;;;;5.80;5.30;;;;;;;;;;5139628;27;20202;-66
2023/08/20 05:19:06;;;;;;;5.60;5.20;;;;;;;;;;5139593;27;20202;-66
2023/08/20 05:21:33;;;;;;;6.00;5.47;;;;;;;;;;5139794;27;20205;-66
2023/08/20 05:24:01;;;;;;;6.22;5.70;;;;;;;;;;5139500;27;20198;-65
2023/08/20 05:26:28;;;;;;;6.05;5.55;;;;;;;;;;5139614;27;20221;-65
2023/08/20 05:28:55;;;;;;;6.07;5.68;;;;;;;;;;5139676;27;20209;-66
2023/08/20 05:31:24;;;;;;;5.70;5.30;;;;;;;;;;5139431;27;20582;-65
2023/08/20 05:33:51;;;;;;;6.40;5.90;;;;;;;;;;5140099;27;20238;-66
2023/08/20 05:36:18;;;;;;;5.80;5.40;;;;;;;;;;5138877;27;20245;-66
2023/08/20 05:38:46;;;;;;;6.00;5.50;;;;;;;;;;5139387;27;20616;-65
2023/08/20 05:41:15;;;;;;;6.28;5.88;;;;;;;;;;5139883;27;20566;-65
2023/08/20 05:43:42;;;;;;;6.20;5.80;;;;;;;;;;5139036;27;20210;-66
2023/08/20 05:46:09;;;;;;;6.13;5.72;;;;;;;;;;5139212;27;20202;-65
2023/08/20 05:48:38;;;;;;;7.13;5.53;;;;;;;;;;5139429;27;20503;-66
2023/08/20 05:51:05;;;;;;;6.65;6.05;;;;;;;;;;5139294;27;20214;-65
2023/08/20 05:53:33;;;;;;;6.95;6.45;;;;;;;;;;5138895;27;20233;-67
2023/08/20 05:56:00;;;;;;;6.38;5.82;;;;;;;;;;5138676;27;20202;-65
2023/08/20 05:58:27;;;;;;;6.40;5.90;;;;;;;;;;5138567;27;20213;-66
2023/08/20 06:00:55;;;;;;;7.30;6.65;;;;;;;;;;5138390;27;20194;-65
2023/08/20 06:03:22;;;;;;;6.90;6.20;;;;;;;;;;5138629;27;20486;-65
2023/08/20 06:05:51;;;;;;;6.75;6.25;;;;;;;;;;5138957;27;20213;-65
2023/08/20 06:08:18;;;;;;;6.45;5.95;;;;;;;;;;5138940;27;20201;-66
2023/08/20 06:10:45;;;;;;;7.28;6.70;;;;;;;;;;5139096;27;20213;-66
2023/08/20 06:13:12;;;;;;;7.53;6.82;;;;;;;;;;5138928;27;20510;-66
2023/08/20 06:15:40;;;;;;;7.85;7.15;;;;;;;;;;5139075;27;20213;-66
2023/08/20 06:18:07;;;;;;;7.25;6.55;;;;;;;;;;5138917;27;20202;-65
2023/08/20 06:20:34;;;;;;;7.28;6.57;;;;;;;;;;5138363;27;20237;-65
2023/08/20 06:23:03;;;;;;;7.90;7.20;;;;;;;;;;5138511;27;20199;-65
2023/08/20 06:25:30;;;;;;;8.35;7.75;;;;;;;;;;5138699;27;20202;-67
2023/08/20 06:27:58;;;;;;;8.73;8.13;;;;;;;;;;5138681;27;20229;-65
2023/08/20 06:30:25;;;;;;;8.43;7.65;;;;;;;;;;5138615;27;20213;-66
2023/08/20 06:32:53;;;;;;;7.85;7.25;;;;;;;;;;5138010;27;20233;-66
2023/08/20 06:35:20;;;;;;;8.48;7.88;;;;;;;;;;5137422;27;20206;-65
2023/08/20 06:37:48;;;;;;;9.05;8.25;;;;;;;;;;5138457;27;20202;-65
2023/08/20 06:40:16;;;;;;;10.20;9.30;;;;;;;;;;5138322;27;20213;-65
2023/08/20 06:42:44;;;;;;;9.75;9.02;;;;;;;;;;5138233;27;20217;-65
2023/08/20 06:45:11;;;;;;;10.32;9.38;;;;;;;;;;5138375;27;20205;-65
2023/08/20 06:47:39;;;;;;;11.10;10.10;;;;;;;;;;5138204;27;20228;-65
2023/08/20 06:50:07;;;;;;;11.38;10.48;;;;;;;;;;5138248;27;20717;-65
2023/08/20 06:52:34;;;;;;;12.75;11.60;;;;;;;;;;5137862;27;20222;-65
2023/08/20 06:55:02;;;;;;;11.80;10.80;;;;;;;;;;5137901;27;20214;-65
2023/08/20 06:57:31;;;;;;;12.98;11.80;;;;;;;;;;5138198;27;20213;-66
2023/08/20 06:59:58;;;;;;;12.68;11.65;;;;;;;;;;5137903;28;20612;-65
2023/08/20 07:02:26;;;;;;;13.25;11.95;;;;;;;;;;5137503;27;20210;-65
2023/08/20 07:04:53;;;;;;;13.10;12.00;;;;;;;;;;5136922;27;20472;-65
2023/08/20 07:07:20;;;;;;;13.48;12.27;;;;;;;;;;5137737;28;20202;-66
2023/08/20 07:09:47;;;;;;;14.13;12.75;;;;;;;;;;5137940;27;20213;-65
2023/08/20 07:12:15;;;;;;;12.68;11.57;;;;;;;;;;5137775;27;20202;-65
2023/08/20 07:14:43;;;;;;;12.93;11.80;;;;;;;;;;5137768;28;20230;-65
2023/08/20 07:17:11;;;;;;;13.38;12.18;;;;;;;;;;5138830;27;20198;-65
2023/08/20 07:19:38;;;;;;;13.73;12.52;;;;;;;;;;5141721;27;20202;-65
2023/08/20 07:22:24;;;;;;;13.00;11.70;;;;;;;;;;5141481;27;20283;-65
2023/08/20 07:24:52;;;;;;;12.85;11.85;;;;;;;;;;5141588;27;20202;-65
2023/08/20 07:27:20;;;;;;;13.10;12.00;;;;;;;;;;5141803;27;20210;-65
2023/08/20 07:29:49;;;;;;;13.18;12.07;;;;;;;;;;5142038;27;20194;-65
2023/08/20 07:32:16;;;;;;;12.55;11.55;;;;;;;;;;5141659;27;20206;-65
2023/08/20 07:34:43;;;;;;;12.82;11.75;;;;;;;;;;5141684;27;20226;-65
2023/08/20 07:37:10;;;;;;;12.63;11.60;;;;;;;;;;5141472;27;20229;-65
2023/08/20 07:39:38;;;;;;;13.23;12.13;;;;;;;;;;5141452;27;20203;-66
2023/08/20 07:42:06;;;;;;;12.50;11.50;;;;;;;;;;5141477;27;20300;-65
2023/08/20 07:44:33;;;;;;;12.95;11.88;;;;;;;;;;5140707;27;20205;-65
2023/08/20 07:47:02;;;;;;;13.10;12.02;;;;;;;;;;5141159;27;20217;-65
2023/08/20 07:49:29;;;;;;;12.95;11.85;;;;;;;;;;5141283;27;20202;-65
2023/08/20 07:51:57;;;;;;;12.73;11.75;;;;;;;;;;5141310;27;20210;-65
2023/08/20 07:54:24;;;;;;;12.57;11.57;;;;;;;;;;5140945;27;20226;-65
2023/08/20 07:56:51;;;;;;;12.88;11.82;;;;;;;;;;5140162;27;20207;-65
2023/08/20 07:59:18;;;;;;;12.45;11.40;;;;;;;;;;5140472;27;20225;-66
2023/08/20 08:01:46;;;;;;;13.05;11.98;;;;;;;;;;5140994;27;20210;-65
2023/08/20 08:04:14;;;;;;;12.10;11.15;;;;;;;;;;5140660;27;20198;-65
2023/08/20 08:06:42;;;;;;;12.52;11.52;;;;;;;;;;5140455;27;20268;-65
2023/08/20 08:09:22;;;;;;;13.27;12.27;;;;;;;;;;5141131;27;20209;-65
2023/08/20 08:11:50;;;;;;;12.90;11.90;;;;;;;;;;5140614;27;20251;-65
2023/08/20 08:14:18;;;;;;;12.60;11.50;;;;;;;;;;5140544;27;20226;-65
2023/08/20 08:16:46;;;;;;;13.30;12.13;;;;;;;;;;5140582;27;20258;-65
2023/08/20 08:19:15;;;;;;;12.77;11.77;;;;;;;;;;5140609;27;20213;-65
2023/08/20 08:21:43;;;;;;;12.43;11.52;;;;;;;;;;5140366;27;20198;-65
2023/08/20 08:24:12;;;;;;;12.00;11.02;;;;;;;;;;5140225;27;20198;-66
2023/08/20 08:26:40;;;;;;;12.32;11.27;;;;;;;;;;5140481;27;20202;-66
2023/08/20 08:29:08;;;;;;;12.07;11.18;;;;;;;;;;5138982;27;20206;-66
2023/08/20 08:31:36;;;;;;;12.85;11.75;;;;;;;;;;5139894;27;20491;-65
2023/08/20 08:34:04;;;;;;;12.38;11.48;;;;;;;;;;5139768;27;20221;-66
2023/08/20 08:36:32;;;;;;;12.25;11.25;;;;;;;;;;5139488;27;20234;-65
2023/08/20 08:39:00;;;;;;;11.60;10.70;;;;;;;;;;5140383;27;20234;-66
2023/08/20 08:41:28;;;;;;;11.75;10.85;;;;;;;;;;5140273;27;20218;-66
2023/08/20 08:43:55;;;;;;;11.93;10.88;;;;;;;;;;5139615;27;20228;-65
2023/08/20 08:46:24;;;;;;;11.80;10.82;;;;;;;;;;5139618;27;20226;-66
2023/08/20 08:48:51;;;;;;;11.93;10.93;;;;;;;;;;5139277;27;20214;-65
2023/08/20 08:51:19;;;;;;;11.70;10.75;;;;;;;;;;5139449;27;20202;-65
2023/08/20 08:53:48;;;;;;;11.88;10.98;;;;;;;;;;5139322;27;20213;-65
2023/08/20 08:56:16;;;;;;;11.57;10.68;;;;;;;;;;5139280;27;20202;-65
2023/08/20 08:58:43;;;;;;;11.82;10.93;;;;;;;;;;5138983;27;20202;-66
2023/08/20 09:01:11;;;;;;;11.32;10.52;;;;;;;;;;5138360;27;20301;-66
2023/08/20 09:03:38;;;;;;;12.32;11.32;;;;;;;;;;5138697;27;20221;-65
2023/08/20 09:06:10;;;;;;;11.18;10.27;;;;;;;;;;5139006;27;20559;-65
2023/08/20 09:08:38;;;;;;;11.63;10.80;;;;;;;;;;5138367;27;20206;-65
2023/08/20 09:11:06;;;;;;;11.65;10.85;;;;;;;;;;5138896;27;20211;-65
2023/08/20 09:13:37;;;;;;;11.43;10.63;;;;;;;;;;5139106;27;20656;-65
2023/08/20 09:16:09;;;;;;;11.90;10.90;;;;;;;;;;5138099;27;20229;-65
2023/08/20 09:18:40;;;;;;;10.85;10.02;;;;;;;;;;5138444;27;20202;-65
2023/08/20 09:21:08;;;;;;;10.90;10.10;;;;;;;;;;5137938;27;20262;-65
2023/08/20 09:23:35;;;;;;;11.27;10.40;;;;;;;;;;5138627;27;20262;-65
2023/08/20 09:26:03;;;;;;;11.10;10.30;;;;;;;;;;5138049;27;20566;-65
2023/08/20 09:28:42;;;;;;;10.93;10.13;;;;;;;;;;5138313;27;20267;-65
2023/08/20 09:31:09;;;;;;;11.27;10.40;;;;;;;;;;5138764;27;20202;-66
2023/08/20 09:33:36;;;;;;;11.70;10.80;;;;;;;;;;5137820;27;20203;-65
2023/08/20 09:36:04;;;;;;;11.60;10.70;;;;;;;;;;5137649;27;20605;-65
2023/08/20 09:38:38;;;;;;;11.48;10.57;;;;;;;;;;5138590;27;20198;-65
2023/08/20 09:41:07;;;;;;;11.38;10.40;;;;;;;;;;5119555;27;20234;-64
2023/08/20 09:43:39;;;;;;;10.88;10.00;;;;;;;;;;5117565;28;20210;-64
2023/08/20 09:46:07;;;;;;;10.63;9.85;;;;;;;;;;5117371;28;20738;-64
2023/08/20 09:48:35;;;;;;;10.90;10.07;;;;;;;;;;5117756;28;20298;-64
2023/08/20 09:51:05;;;;;;;11.60;10.70;;;;;;;;;;5117411;28;20213;-65
2023/08/20 09:53:35;;;;;;;11.27;10.43;;;;;;;;;;5117539;28;20209;-65
2023/08/20 09:56:09;;;;;;;11.43;10.50;;;;;;;;;;5119102;27;20258;-64
2023/08/20 09:58:36;;;;;;;11.55;10.65;;;;;;;;;;5117424;28;20211;-65
2023/08/20 10:01:05;;;;;;;11.82;10.88;;;;;;;;;;5117852;28;20214;-65
2023/08/20 10:03:33;;;;;;;11.40;10.55;;;;;;;;;;5117971;28;20206;-65
2023/08/20 10:06:02;;;;;;;12.38;11.48;;;;;;;;;;5117535;28;20241;-65
2023/08/20 10:08:29;;;;;;;12.10;11.20;;;;;;;;;;5117816;28;20203;-66
2023/08/20 10:10:57;;;;;;;11.15;10.20;;;;;;;;;;5116947;28;20199;-65
2023/08/20 10:13:24;;;;;;;11.82;10.93;;;;;;;;;;5117554;28;20210;-66
2023/08/20 10:15:52;;;;;;;11.43;10.55;;;;;;;;;;5117401;28;20226;-66
2023/08/20 10:18:23;;;;;;;11.48;10.48;;;;;;;;;;5116888;28;20199;-66
2023/08/20 10:20:51;;;;;;;11.45;10.55;;;;;;;;;;5116675;28;20203;-66
2023/08/20 10:23:22;;;;;;;11.05;10.25;;;;;;;;;;5116691;28;20199;-65
2023/08/20 10:25:50;;;;;;;11.05;10.25;;;;;;;;;;5117385;28;20610;-66
2023/08/20 10:28:22;;;;;;;11.43;10.50;;;;;;;;;;5117482;28;20213;-66
2023/08/20 10:31:06;;;;;;;11.50;10.50;;;;;;;;;;5116414;28;20283;-66
2023/08/20 10:33:35;;;;;;;12.38;11.38;;;;;;;;;;5117068;28;20212;-66
2023/08/20 10:36:09;;;;;;;12.00;11.10;;;;;;;;;;5116855;28;20261;-65
2023/08/20 10:38:37;;;;;;;11.75;10.75;;;;;;;;;;5116949;28;20213;-65
2023/08/20 10:41:08;;;;;;;11.90;11.00;;;;;;;;;;5116768;28;20203;-67
2023/08/20 10:43:36;;;;;;;11.52;10.65;;;;;;;;;;5116926;28;20203;-65
2023/08/20 10:46:10;;;;;;;11.40;10.60;;;;;;;;;;5116785;28;20199;-65
2023/08/20 10:48:40;;;;;;;11.10;10.30;;;;;;;;;;5117149;28;20209;-65
2023/08/20 10:51:08;;;;;;;10.95;10.15;;;;;;;;;;5117241;28;20203;-65
2023/08/20 10:53:35;;;;;;;10.98;10.18;;;;;;;;;;5120805;28;20484;-65
2023/08/20 10:56:13;;;;;;;12.25;11.35;;;;;;;;;;5121356;28;20244;-66
2023/08/20 10:58:42;;;;;;;11.57;10.68;;;;;;;;;;5121262;28;20210;-65
2023/08/20 11:01:16;;;;;;;11.82;10.88;;;;;;;;;;5121377;28;20199;-65
2023/08/20 11:03:45;;;;;;;12.05;11.13;;;;;;;;;;5121269;28;20203;-65
2023/08/20 11:06:12;;;;;;;11.45;10.55;;;;;;;;;;5121190;28;20211;-65
2023/08/20 11:08:40;;;;;;;11.73;10.85;;;;;;;;;;5134827;27;20202;-65
2023/08/20 11:11:11;;;;;;;12.35;11.35;;;;;;;;;;5141962;27;20258;-65
2023/08/20 11:13:39;;;;;;;11.95;10.95;;;;;;;;;;5122675;27;20202;-65
2023/08/20 11:16:07;;;;;;;11.43;10.52;;;;;;;;;;5140978;27;20226;-65
2023/08/20 11:18:35;;;;;;;11.20;10.40;;;;;;;;;;5140857;27;20229;-65
2023/08/20 11:21:04;;;;;;;12.00;11.00;;;;;;;;;;5140651;27;20214;-65
2023/08/20 11:23:31;;;;;;;12.57;11.68;;;;;;;;;;5140762;27;20202;-65
2023/08/20 11:25:59;;;;;;;13.07;12.07;;;;;;;;;;5141267;27;20198;-65
2023/08/20 11:28:27;;;;;;;13.30;12.27;;;;;;;;;;5140272;27;20213;-65
2023/08/20 11:30:55;;;;;;;12.52;11.52;;;;;;;;;;5140299;27;20597;-65
2023/08/20 11:33:23;;;;;;;12.43;11.52;;;;;;;;;;5140778;27;20484;-65
2023/08/20 11:35:51;;;;;;;11.98;11.07;;;;;;;;;;5140217;27;20328;-65
2023/08/20 11:38:21;;;;;;;12.40;11.50;;;;;;;;;;5138815;27;20726;-66
2023/08/20 11:40:48;;;;;;;11.55;10.65;;;;;;;;;;5139820;27;20582;-66
2023/08/20 11:43:16;;;;;;;12.50;11.60;;;;;;;;;;5140000;27;20229;-65
2023/08/20 11:45:50;;;;;;;12.63;11.63;;;;;;;;;;5140521;27;20198;-66
2023/08/20 11:48:18;;;;;;;12.23;11.32;;;;;;;;;;5140292;27;20221;-65
2023/08/20 11:50:46;;;;;;;11.88;11.00;;;;;;;;;;5140609;27;20214;-65
2023/08/20 11:53:13;;;;;;;11.57;10.68;;;;;;;;;;5140486;27;20233;-65
2023/08/20 11:55:42;;;;;;;12.45;11.45;;;;;;;;;;5139338;27;20237;-65
2023/08/20 11:58:14;;;;;;;12.30;11.40;;;;;;;;;;5140102;27;20237;-65
2023/08/20 12:00:41;;;;;;;12.40;11.40;;;;;;;;;;5139295;27;20202;-65
2023/08/20 12:03:09;;;;;;;12.13;11.20;;;;;;;;;;5139705;27;20267;-65
2023/08/20 12:05:36;;;;;;;11.70;10.90;;;;;;;;;;5139045;27;20198;-65
2023/08/20 12:08:04;;;;;;;11.98;11.05;;;;;;;;;;5139768;27;20209;-65
2023/08/20 12:10:32;;;;;;;12.23;11.23;;;;;;;;;;5139398;27;20229;-65
2023/08/20 12:13:01;;;;;;;12.18;11.27;;;;;;;;;;5139999;27;20586;-65
2023/08/20 12:15:29;;;;;;;12.02;11.23;;;;;;;;;;5139564;27;20258;-65
2023/08/20 12:18:01;;;;;;;12.43;11.30;;;;;;;;;;5139607;27;20253;-65
2023/08/20 12:20:29;;;;;;;12.10;11.20;;;;;;;;;;5139265;27;20202;-65
2023/08/20 12:22:58;;;;;;;12.40;11.40;;;;;;;;;;5136823;27;20227;-65
2023/08/20 12:25:25;;;;;;;12.30;11.40;;;;;;;;;;5118626;28;20206;-65
2023/08/20 12:27:53;;;;;;;12.32;11.43;;;;;;;;;;5118871;28;20203;-65
2023/08/20 12:30:21;;;;;;;12.30;11.40;;;;;;;;;;5118694;28;20614;-65
2023/08/20 12:32:49;;;;;;;11.98;10.98;;;;;;;;;;5119064;28;20461;-65
2023/08/20 12:35:16;;;;;;;11.63;10.77;;;;;;;;;;5118490;28;20219;-66
2023/08/20 12:37:43;;;;;;;12.32;11.43;;;;;;;;;;5118136;28;20271;-65
2023/08/20 12:40:12;;;;;;;11.95;11.05;;;;;;;;;;5118072;28;20194;-65
2023/08/20 12:42:40;;;;;;;11.63;10.73;;;;;;;;;;5118826;28;20207;-65
2023/08/20 12:45:08;;;;;;;12.35;11.43;;;;;;;;;;5117937;28;20209;-65
2023/08/20 12:47:37;;;;;;;12.13;11.23;;;;;;;;;;5117892;28;20214;-66
2023/08/20 12:50:04;;;;;;;11.98;11.18;;;;;;;;;;5117346;28;20586;-66
2023/08/20 12:52:32;;;;;;;12.40;11.43;;;;;;;;;;5117601;28;20590;-65
2023/08/20 12:54:59;;;;;;;11.65;10.82;;;;;;;;;;5116990;28;20299;-65
2023/08/20 12:57:27;;;;;;;11.32;10.52;;;;;;;;;;5117632;28;20199;-65
2023/08/20 12:59:54;;;;;;;11.60;10.73;;;;;;;;;;5118131;28;20450;-67
2023/08/20 13:02:21;;;;;;;11.70;10.70;;;;;;;;;;5118282;28;20199;-66
2023/08/20 13:04:51;;;;;;;11.63;10.82;;;;;;;;;;5118134;28;20218;-65
2023/08/20 13:07:18;;;;;;;12.32;11.43;;;;;;;;;;5118334;28;20235;-65
2023/08/20 13:09:46;;;;;;;11.93;10.93;;;;;;;;;;5118205;28;20203;-65
2023/08/20 13:12:13;;;;;;;11.68;10.77;;;;;;;;;;5118179;28;20203;-66
2023/08/20 13:14:42;;;;;;;11.40;10.55;;;;;;;;;;5117238;28;20610;-65
2023/08/20 13:17:09;;;;;;;11.63;10.80;;;;;;;;;;5138449;27;20609;-65
2023/08/20 13:19:37;;;;;;;12.10;11.07;;;;;;;;;;5138643;27;20203;-66
2023/08/20 13:22:06;;;;;;;11.80;10.90;;;;;;;;;;5137800;27;20210;-65
2023/08/20 13:24:34;;;;;;;11.50;10.70;;;;;;;;;;5137505;27;20202;-65
2023/08/20 13:27:01;;;;;;;11.93;10.93;;;;;;;;;;5138529;27;20198;-65
2023/08/20 13:29:29;;;;;;;11.85;11.05;;;;;;;;;;5138808;27;20203;-66
2023/08/20 13:31:56;;;;;;;12.02;11.13;;;;;;;;;;5137697;27;20198;-65
2023/08/20 13:34:23;;;;;;;12.65;11.75;;;;;;;;;;5138112;27;20288;-66
2023/08/20 13:36:51;;;;;;;11.55;10.68;;;;;;;;;;5137825;27;20244;-66
2023/08/20 13:39:19;;;;;;;12.30;11.40;;;;;;;;;;5137331;27;20289;-65
2023/08/20 13:41:47;;;;;;;12.23;11.32;;;;;;;;;;5138140;27;20214;-65
2023/08/20 13:44:15;;;;;;;11.93;11.02;;;;;;;;;;5137794;27;20209;-65
2023/08/20 13:46:42;;;;;;;11.27;10.38;;;;;;;;;;5138673;27;20210;-66
2023/08/20 13:49:09;;;;;;;11.02;10.23;;;;;;;;;;5138400;27;20581;-65
2023/08/20 13:51:37;;;;;;;11.40;10.50;;;;;;;;;;5138034;27;20202;-65
2023/08/20 13:54:04;;;;;;;11.27;10.48;;;;;;;;;;5138199;27;20225;-65
2023/08/20 13:56:33;;;;;;;12.23;11.32;;;;;;;;;;5138430;27;20648;-65
2023/08/20 13:59:00;;;;;;;11.00;10.30;;;;;;;;;;5137484;27;20202;-66
2023/08/20 14:01:28;;;;;;;11.02;10.20;;;;;;;;;;5137833;27;20229;-65
2023/08/20 14:03:55;;;;;;;12.00;11.10;;;;;;;;;;5137725;27;20202;-65
2023/08/20 14:06:22;;;;;;;11.05;10.25;;;;;;;;;;5137220;27;20268;-65
2023/08/20 14:08:49;;;;;;;11.10;10.40;;;;;;;;;;5137153;27;20598;-66
2023/08/20 14:11:17;;;;;;;11.60;10.70;;;;;;;;;;5137468;27;20202;-66
2023/08/20 14:13:45;;;;;;;11.50;10.60;;;;;;;;;;5137414;27;20191;-65
2023/08/20 14:16:13;;;;;;;11.32;10.55;;;;;;;;;;5136939;27;20221;-65
2023/08/20 14:18:40;;;;;;;12.02;11.13;;;;;;;;;;5136765;27;20202;-65
2023/08/20 14:21:07;;;;;;;11.45;10.55;;;;;;;;;;5137100;27;20217;-65
2023/08/20 14:23:35;;;;;;;12.43;11.43;;;;;;;;;;5136322;27;20202;-66
2023/08/20 14:26:02;;;;;;;11.00;10.18;;;;;;;;;;5136490;27;20259;-66
2023/08/20 14:28:31;;;;;;;11.98;11.18;;;;;;;;;;5123037;28;20207;-66
2023/08/20 14:31:03;;;;;;;11.32;10.52;;;;;;;;;;5116072;28;20305;-65
2023/08/20 14:33:30;;;;;;;11.80;10.77;;;;;;;;;;5116587;28;20492;-65